createdAt,value
2023-05-03T00:02:27.106Z,19.42
2023-05-03T00:04:54.615Z,15.73
2023-05-03T00:07:22.923Z,17.60
2023-05-03T00:09:50.537Z,17.40
2023-05-03T00:12:18.444Z,10.50
2023-05-03T00:14:46.351Z,21.70
2023-05-03T00:17:14.553Z,15.43
2023-05-03T00:19:42.557Z,21.73
2023-05-03T00:22:10.090Z,21.20
2023-05-03T00:24:37.824Z,24.45
2023-05-03T00:27:05.635Z,17.15
2023-05-03T00:29:33.504Z,13.48
2023-05-03T00:32:02.410Z,16.75
2023-05-03T00:34:29.775Z,13.80
2023-05-03T00:36:57.186Z,14.32
2023-05-03T00:39:24.577Z,21.42
2023-05-03T00:41:57.947Z,16.58
2023-05-03T00:44:25.895Z,27.38
2023-05-03T00:46:53.703Z,23.55
2023-05-03T00:49:21.827Z,18.05
2023-05-03T00:51:49.727Z,14.27
2023-05-03T00:54:17.727Z,13.00
2023-05-03T00:56:51.651Z,13.65
2023-05-03T00:59:20.359Z,19.05
2023-05-03T01:01:53.063Z,23.50
2023-05-03T01:04:22.131Z,13.60
2023-05-03T01:07:21.206Z,12.45
2023-05-03T01:10:21.527Z,18.92
2023-05-03T01:13:13.097Z,15.52
2023-05-03T01:15:40.428Z,23.80
2023-05-03T01:18:12.596Z,17.80
2023-05-03T01:23:14.559Z,15.95
2023-05-03T01:25:42.191Z,22.95
2023-05-03T01:28:09.650Z,19.35
2023-05-03T01:30:38.701Z,19.80
2023-05-03T01:33:22.783Z,23.20
2023-05-03T01:36:13.089Z,19.90
2023-05-03T01:38:40.677Z,17.65
2023-05-03T01:41:11.664Z,16.80
2023-05-03T01:43:40.328Z,24.80
2023-05-03T01:46:08.337Z,12.90
2023-05-03T01:48:36.124Z,11.43
2023-05-03T01:51:03.537Z,22.45
2023-05-03T01:53:30.819Z,20.05
2023-05-03T01:55:58.592Z,21.27
2023-05-03T01:58:25.957Z,12.88
2023-05-03T02:00:53.597Z,20.30
2023-05-03T02:03:21.187Z,16.95
2023-05-03T02:05:49.730Z,18.92
2023-05-03T02:08:17.034Z,18.88
2023-05-03T02:10:44.747Z,14.40
2023-05-03T02:13:12.109Z,18.75
2023-05-03T02:15:39.398Z,15.60
2023-05-03T02:18:08.638Z,21.88
2023-05-03T02:20:37.907Z,29.83
2023-05-03T02:23:05.222Z,18.23
2023-05-03T02:25:32.621Z,16.15
2023-05-03T02:28:01.096Z,13.90
2023-05-03T02:30:29.039Z,20.77
2023-05-03T02:32:56.918Z,15.68
2023-05-03T02:35:24.350Z,18.95
2023-05-03T02:37:51.692Z,19.38
2023-05-03T02:40:19.461Z,21.00
2023-05-03T02:42:48.221Z,18.00
2023-05-03T02:45:23.168Z,16.17
2023-05-03T02:47:50.482Z,11.10
2023-05-03T02:50:18.662Z,17.70
2023-05-03T02:52:46.317Z,18.00
2023-05-03T02:55:13.806Z,23.63
2023-05-03T02:57:43.359Z,12.45
2023-05-03T03:00:16.070Z,13.18
2023-05-03T03:02:44.508Z,20.55
2023-05-03T03:05:12.656Z,15.63
2023-05-03T03:07:42.461Z,13.60
2023-05-03T03:10:10.196Z,14.57
2023-05-03T03:12:38.605Z,26.42
2023-05-03T03:15:10.181Z,16.75
2023-05-03T03:17:40.396Z,16.70
2023-05-03T03:20:14.115Z,24.85
2023-05-03T03:22:45.603Z,16.63
2023-05-03T03:25:13.277Z,21.02
2023-05-03T03:27:40.796Z,28.08
2023-05-03T03:30:09.259Z,14.55
2023-05-03T03:32:42.832Z,17.02
2023-05-03T03:35:16.621Z,17.92
2023-05-03T03:37:44.363Z,18.40
2023-05-03T03:40:12.841Z,21.67
2023-05-03T03:42:40.830Z,20.27
2023-05-03T03:45:08.897Z,14.45
2023-05-03T03:47:36.352Z,22.92
2023-05-03T03:50:04.352Z,19.42
2023-05-03T03:52:33.675Z,30.77
2023-05-03T03:55:01.140Z,16.08
2023-05-03T03:57:30.420Z,16.27
2023-05-03T03:59:59.351Z,17.73
2023-05-03T04:02:28.874Z,26.05
2023-05-03T04:04:56.212Z,23.00
2023-05-03T04:07:23.686Z,22.13
2023-05-03T04:09:51.033Z,29.35
2023-05-03T04:12:19.442Z,31.52
2023-05-03T04:14:47.036Z,23.23
2023-05-03T04:17:14.481Z,25.48
2023-05-03T04:19:44.746Z,22.88
2023-05-03T04:22:13.535Z,23.65
2023-05-03T04:24:41.828Z,26.30
2023-05-03T04:27:10.155Z,23.25
2023-05-03T04:29:39.812Z,24.95
2023-05-03T04:32:08.400Z,21.63
2023-05-03T04:34:37.713Z,16.30
2023-05-03T04:37:06.425Z,19.00
2023-05-03T04:39:34.487Z,27.65
2023-05-03T04:42:02.862Z,26.10
2023-05-03T04:44:30.464Z,21.65
2023-05-03T04:46:59.821Z,21.05
2023-05-03T04:49:29.272Z,27.20
2023-05-03T04:51:57.353Z,21.73
2023-05-03T04:54:26.457Z,31.88
2023-05-03T04:56:55.359Z,29.00
2023-05-03T04:59:23.226Z,21.48
2023-05-03T05:01:50.817Z,25.17
2023-05-03T05:04:18.356Z,26.98
2023-05-03T05:06:52.385Z,26.30
2023-05-03T05:09:27.703Z,31.70
2023-05-03T05:11:58.019Z,37.92
2023-05-03T05:14:31.301Z,40.67
2023-05-03T05:16:59.218Z,31.48
2023-05-03T05:19:27.542Z,42.00
2023-05-03T05:21:55.656Z,28.70
2023-05-03T05:24:27.083Z,39.17
2023-05-03T05:26:54.933Z,30.00
2023-05-03T05:29:22.406Z,34.83
2023-05-03T05:31:50.122Z,44.15
2023-05-03T05:34:17.755Z,35.13
2023-05-03T05:36:45.668Z,36.55
2023-05-03T05:39:14.055Z,26.70
2023-05-03T05:41:41.481Z,35.55
2023-05-03T05:44:09.599Z,36.95
2023-05-03T05:46:36.906Z,38.40
2023-05-03T05:49:04.820Z,31.88
2023-05-03T05:51:33.413Z,37.20
2023-05-03T05:54:00.698Z,49.88
2023-05-03T05:56:28.753Z,45.75
2023-05-03T05:58:57.185Z,35.75
2023-05-03T06:01:27.077Z,40.40
2023-05-03T06:03:56.487Z,47.03
2023-05-03T06:06:25.448Z,38.47
2023-05-03T06:08:53.374Z,37.95
2023-05-03T06:11:21.927Z,34.15
2023-05-03T06:13:49.788Z,38.92
2023-05-03T06:16:19.111Z,39.88
2023-05-03T06:18:46.545Z,36.10
2023-05-03T06:21:15.582Z,45.30
2023-05-03T06:23:43.415Z,37.97
2023-05-03T06:26:13.962Z,47.08
2023-05-03T06:28:43.837Z,32.83
2023-05-03T06:31:11.781Z,42.28
2023-05-03T06:33:39.699Z,34.25
2023-05-03T06:36:08.165Z,35.88
2023-05-03T06:38:37.222Z,35.13
2023-05-03T06:41:13.768Z,31.95
2023-05-03T06:43:41.323Z,35.23
2023-05-03T06:46:08.805Z,37.47
2023-05-03T06:48:36.592Z,34.17
2023-05-03T06:51:05.433Z,35.78
2023-05-03T06:53:32.791Z,32.55
2023-05-03T06:56:00.627Z,32.10
2023-05-03T06:58:28.039Z,37.15
2023-05-03T07:00:55.324Z,36.53
2023-05-03T07:03:23.614Z,29.70
2023-05-03T07:05:51.635Z,36.72
2023-05-03T07:08:18.875Z,28.10
2023-05-03T07:10:46.741Z,31.45
2023-05-03T07:13:14.299Z,43.28
2023-05-03T07:15:41.722Z,28.55
2023-05-03T07:18:09.222Z,32.13
2023-05-03T07:20:36.766Z,33.75
2023-05-03T07:23:08.145Z,34.22
2023-05-03T07:25:35.721Z,34.58
2023-05-03T07:28:03.473Z,25.10
2023-05-03T07:30:30.923Z,30.13
2023-05-03T07:32:58.878Z,31.05
2023-05-03T07:38:28.521Z,25.70
2023-05-03T07:40:56.011Z,23.75
2023-05-03T07:43:23.819Z,18.83
2023-05-03T07:45:51.648Z,28.52
2023-05-03T07:48:21.768Z,27.52
2023-05-03T07:50:49.555Z,25.17
2023-05-03T07:53:17.162Z,21.98
2023-05-03T07:55:44.577Z,21.90
2023-05-03T07:58:13.567Z,27.60
2023-05-03T08:00:41.240Z,21.40
2023-05-03T08:03:10.493Z,22.95
2023-05-03T08:05:38.736Z,24.63
2023-05-03T08:08:06.552Z,22.52
2023-05-03T08:10:37.777Z,21.17
2023-05-03T08:13:13.001Z,23.17
2023-05-03T08:15:40.767Z,24.25
2023-05-03T08:18:09.100Z,20.02
2023-05-03T08:20:37.187Z,19.98
2023-05-03T08:23:09.073Z,23.23
2023-05-03T08:25:37.271Z,25.42
2023-05-03T08:30:52.667Z,31.92
2023-05-03T08:33:29.288Z,18.08
2023-05-03T08:35:57.109Z,17.20
2023-05-03T08:45:02.601Z,24.30
2023-05-03T08:48:33.054Z,25.25
2023-05-03T08:51:35.666Z,22.65
2023-05-03T08:54:12.728Z,39.67
2023-05-03T08:56:51.056Z,28.42
2023-05-03T08:59:22.197Z,33.95
2023-05-03T09:06:19.366Z,22.70
2023-05-03T09:08:50.450Z,33.53
2023-05-03T09:11:59.258Z,21.52
2023-05-03T09:18:19.761Z,30.45
2023-05-03T09:24:24.042Z,26.80
2023-05-03T09:26:55.886Z,30.98
2023-05-03T09:29:38.168Z,18.33
2023-05-03T09:32:07.620Z,22.15
2023-05-03T09:34:45.712Z,18.90
2023-05-03T09:37:16.657Z,24.08
2023-05-03T09:39:46.285Z,16.17
2023-05-03T09:42:16.486Z,12.70
2023-05-03T09:44:58.610Z,12.10
2023-05-03T09:47:51.005Z,16.10
2023-05-03T09:54:45.088Z,21.45
2023-05-03T09:57:20.071Z,18.73
2023-05-03T09:59:57.208Z,7.15
2023-05-03T10:02:25.152Z,11.20
2023-05-03T10:05:13.262Z,12.98
2023-05-03T10:07:47.895Z,17.60
2023-05-03T10:13:50.713Z,19.92
2023-05-03T10:16:48.236Z,18.83
2023-05-03T10:22:33.392Z,16.50
2023-05-03T10:25:18.716Z,21.45
2023-05-03T10:27:49.181Z,20.73
2023-05-03T10:30:48.877Z,22.42
2023-05-03T10:33:16.944Z,16.50
2023-05-03T10:36:01.399Z,17.33
2023-05-03T10:38:30.673Z,24.00
2023-05-03T10:41:00.344Z,23.40
2023-05-03T10:43:42.664Z,16.92
2023-05-03T10:46:32.066Z,23.38
2023-05-03T10:49:23.073Z,13.27
2023-05-03T10:51:50.710Z,19.63
2023-05-03T10:54:19.711Z,17.17
2023-05-03T11:00:00.458Z,20.50
2023-05-03T11:02:40.781Z,21.83
2023-05-03T11:05:11.112Z,19.33
2023-05-03T11:07:41.319Z,28.23
2023-05-03T11:10:21.018Z,15.38
2023-05-03T11:12:49.092Z,15.63
2023-05-03T11:15:19.612Z,20.27
2023-05-03T11:17:47.385Z,17.48
2023-05-03T11:20:15.805Z,14.65
2023-05-03T11:22:43.374Z,18.33
2023-05-03T11:25:11.018Z,17.25
2023-05-03T11:27:41.767Z,14.23
2023-05-03T11:30:10.378Z,15.00
2023-05-03T11:32:41.039Z,19.83
2023-05-03T11:35:09.301Z,23.25
2023-05-03T11:37:40.228Z,17.67
2023-05-03T11:40:16.897Z,25.65
2023-05-03T11:42:59.103Z,25.25
2023-05-03T11:45:42.340Z,17.25
2023-05-03T11:48:10.523Z,28.98
2023-05-03T11:50:55.267Z,16.35
2023-05-03T11:53:29.350Z,23.15
2023-05-03T11:55:58.066Z,24.27
2023-05-03T11:58:26.784Z,20.25
2023-05-03T12:00:57.847Z,18.80
2023-05-03T12:03:31.645Z,20.17
2023-05-03T12:06:02.353Z,19.63
2023-05-03T12:08:37.916Z,14.48
2023-05-03T12:11:07.883Z,27.15
2023-05-03T12:13:39.856Z,10.40
2023-05-03T12:16:13.619Z,12.15
2023-05-03T12:18:58.056Z,19.50
2023-05-03T12:23:57.556Z,19.20
2023-05-03T12:26:26.438Z,23.98
2023-05-03T12:28:56.527Z,17.10
2023-05-03T12:31:24.700Z,20.73
2023-05-03T12:36:26.125Z,14.85
2023-05-03T12:38:56.607Z,19.50
2023-05-03T12:42:00.862Z,27.15
2023-05-03T12:44:17.078Z,22.73
2023-05-03T12:46:45.862Z,13.10
2023-05-03T12:49:15.146Z,21.27
2023-05-03T12:51:50.110Z,14.05
2023-05-03T12:54:27.913Z,15.00
2023-05-03T12:57:01.477Z,25.40
2023-05-03T12:59:41.099Z,21.25
2023-05-03T13:04:56.728Z,16.80
2023-05-03T13:07:29.522Z,21.88
2023-05-03T13:12:30.823Z,23.98
2023-05-03T13:14:58.719Z,12.88
2023-05-03T13:17:26.154Z,16.17
2023-05-03T13:19:53.550Z,18.90
2023-05-03T13:22:20.868Z,16.27
2023-05-03T13:24:48.415Z,20.67
2023-05-03T13:27:16.524Z,23.17
2023-05-03T13:29:46.146Z,23.70
2023-05-03T13:32:15.202Z,17.98
2023-05-03T13:34:42.540Z,24.58
2023-05-03T13:37:11.575Z,18.48
2023-05-03T13:39:38.970Z,29.45
2023-05-03T13:42:06.393Z,19.38
2023-05-03T13:44:33.721Z,27.33
2023-05-03T13:47:01.527Z,34.35
2023-05-03T13:49:28.897Z,19.80
2023-05-03T13:51:56.216Z,25.52
2023-05-03T13:54:23.796Z,22.70
2023-05-03T13:56:51.810Z,25.40
2023-05-03T13:59:19.243Z,23.80
2023-05-03T14:01:48.034Z,23.05
2023-05-03T14:04:15.698Z,26.15
2023-05-03T14:06:43.075Z,18.30
2023-05-03T14:09:10.810Z,16.20
2023-05-03T14:11:40.614Z,16.13
2023-05-03T14:14:08.094Z,29.17
2023-05-03T14:16:41.699Z,19.38
2023-05-03T14:19:12.983Z,13.55
2023-05-03T14:21:45.045Z,34.42
2023-05-03T14:24:12.436Z,17.67
2023-05-03T14:26:39.878Z,17.02
2023-05-03T14:29:07.457Z,26.42
2023-05-03T14:31:34.964Z,27.00
2023-05-03T14:34:02.682Z,19.55
2023-05-03T14:36:34.952Z,15.23
2023-05-03T14:39:04.254Z,20.00
2023-05-03T14:41:33.274Z,22.65
2023-05-03T14:44:01.137Z,25.40
2023-05-03T14:46:28.550Z,30.80
2023-05-03T14:48:56.008Z,18.10
2023-05-03T14:51:23.932Z,18.58
2023-05-03T14:53:51.497Z,24.27
2023-05-03T14:56:19.016Z,19.38
2023-05-03T14:58:46.422Z,13.20
2023-05-03T15:01:18.486Z,15.45
2023-05-03T15:03:46.644Z,18.35
2023-05-03T15:06:13.964Z,21.30
2023-05-03T15:08:41.364Z,26.65
2023-05-03T15:11:08.951Z,17.50
2023-05-03T15:13:36.325Z,22.38
2023-05-03T15:16:03.831Z,15.43
2023-05-03T15:18:31.869Z,11.63
2023-05-03T15:20:59.174Z,13.73
2023-05-03T15:23:26.894Z,28.20
2023-05-03T15:25:54.386Z,21.50
2023-05-03T15:28:23.236Z,15.07
2023-05-03T15:30:50.859Z,16.08
2023-05-03T15:33:19.698Z,18.52
2023-05-03T15:35:47.240Z,14.90
2023-05-03T15:38:14.705Z,14.55
2023-05-03T15:40:42.197Z,16.25
2023-05-03T15:43:09.737Z,20.73
2023-05-03T15:45:37.255Z,11.82
2023-05-03T15:48:04.876Z,11.25
2023-05-03T15:50:32.186Z,9.52
2023-05-03T15:52:59.502Z,11.95
2023-05-03T15:55:26.886Z,18.42
2023-05-03T15:57:54.351Z,6.68
2023-05-03T16:00:22.979Z,17.50
2023-05-03T16:02:50.418Z,14.55
2023-05-03T16:05:19.122Z,17.80
2023-05-03T16:07:46.901Z,23.17
2023-05-03T16:10:15.075Z,12.68
2023-05-03T16:12:42.882Z,14.10
2023-05-03T16:15:11.373Z,7.63
2023-05-03T16:17:39.064Z,15.80
2023-05-03T16:20:07.987Z,14.13
2023-05-03T16:22:35.396Z,15.50
2023-05-03T16:25:15.448Z,20.98
2023-05-03T16:27:42.888Z,19.25
2023-05-03T16:30:10.755Z,16.35
2023-05-03T16:32:38.236Z,10.15
2023-05-03T16:35:05.908Z,11.73
2023-05-03T16:37:36.070Z,19.45
2023-05-03T16:40:11.151Z,19.27
2023-05-03T16:42:39.556Z,17.00
2023-05-03T16:45:08.610Z,20.38
2023-05-03T16:47:39.553Z,19.17
2023-05-03T16:50:08.054Z,14.80
2023-05-03T16:52:39.825Z,27.98
2023-05-03T16:55:09.340Z,12.63
2023-05-03T16:57:37.480Z,17.23
2023-05-03T17:00:09.343Z,25.70
2023-05-03T17:02:38.841Z,28.88
2023-05-03T17:05:08.202Z,15.45
2023-05-03T17:07:35.877Z,18.17
2023-05-03T17:10:03.801Z,19.63
2023-05-03T17:12:31.760Z,21.70
2023-05-03T17:14:58.908Z,21.45
2023-05-03T17:17:26.243Z,18.88
2023-05-03T17:19:53.694Z,18.80
2023-05-03T17:22:21.304Z,21.27
2023-05-03T17:24:48.636Z,16.38
2023-05-03T17:27:16.277Z,19.52
2023-05-03T17:29:44.302Z,16.48
2023-05-03T17:32:12.280Z,25.70
2023-05-03T17:34:40.612Z,17.73
2023-05-03T17:37:08.726Z,22.40
2023-05-03T17:39:36.228Z,19.80
2023-05-03T17:42:06.834Z,24.83
2023-05-03T17:44:38.010Z,24.80
2023-05-03T17:47:15.267Z,19.90
2023-05-03T17:52:10.768Z,36.33
2023-05-03T17:54:39.675Z,29.00
2023-05-03T17:57:10.297Z,19.83
2023-05-03T17:59:37.905Z,31.25
2023-05-03T18:02:09.091Z,16.48
2023-05-03T18:04:46.797Z,23.15
2023-05-03T18:07:20.881Z,18.13
2023-05-03T18:09:48.630Z,26.58
2023-05-03T18:12:16.160Z,14.60
2023-05-03T18:14:43.998Z,21.85
2023-05-03T18:17:11.370Z,23.92
2023-05-03T18:19:43.653Z,19.50
2023-05-03T18:22:12.384Z,21.85
2023-05-03T18:24:43.803Z,23.27
2023-05-03T18:27:15.114Z,16.92
2023-05-03T18:29:43.146Z,14.70
2023-05-03T18:32:18.707Z,15.02
2023-05-03T18:34:45.982Z,17.42
2023-05-03T18:37:13.984Z,22.23
2023-05-03T18:39:41.527Z,13.82
2023-05-03T18:42:10.226Z,17.38
2023-05-03T18:44:39.636Z,18.88
2023-05-03T18:47:09.618Z,17.77
2023-05-03T18:49:39.740Z,23.08
2023-05-03T18:52:08.474Z,18.35
2023-05-03T18:54:41.766Z,14.27
2023-05-03T19:00:07.968Z,17.55
2023-05-03T19:02:36.254Z,14.68
2023-05-03T19:05:04.045Z,17.95
2023-05-03T19:07:35.487Z,12.73
2023-05-03T19:10:05.038Z,13.00
2023-05-03T19:12:33.406Z,17.45
2023-05-03T19:15:01.795Z,14.23
2023-05-03T19:17:29.665Z,11.60
2023-05-03T19:19:57.342Z,20.95
2023-05-03T19:22:24.905Z,20.40
2023-05-03T19:24:52.830Z,20.80
2023-05-03T19:27:20.805Z,21.90
2023-05-03T19:29:54.266Z,14.73
2023-05-03T19:32:21.595Z,12.90
2023-05-03T19:34:49.254Z,18.33
2023-05-03T19:37:16.926Z,11.88
2023-05-03T19:39:44.516Z,19.38
2023-05-03T19:42:12.368Z,17.80
2023-05-03T19:44:40.008Z,24.60
2023-05-03T19:47:07.404Z,28.38
2023-05-03T19:49:36.962Z,13.25
2023-05-03T19:52:05.869Z,25.58
2023-05-03T19:54:33.599Z,15.98
2023-05-03T19:57:06.215Z,20.85
2023-05-03T19:59:34.038Z,22.48
2023-05-03T20:02:01.923Z,17.95
2023-05-03T20:04:29.981Z,21.58
2023-05-03T20:06:57.853Z,23.23
2023-05-03T20:09:25.630Z,19.98
2023-05-03T20:11:58.804Z,24.55
2023-05-03T20:14:29.476Z,18.50
2023-05-03T20:16:59.636Z,21.23
2023-05-03T20:19:26.948Z,18.48
2023-05-03T20:21:54.423Z,13.88
2023-05-03T20:24:22.112Z,22.08
2023-05-03T20:26:50.671Z,21.77
2023-05-03T20:29:18.035Z,19.02
2023-05-03T20:31:48.211Z,29.05
2023-05-03T20:34:16.012Z,22.63
2023-05-03T20:36:43.274Z,14.48
2023-05-03T20:39:11.367Z,12.68
2023-05-03T20:41:38.618Z,14.82
2023-05-03T20:44:06.230Z,23.15
2023-05-03T20:46:35.470Z,19.90
2023-05-03T20:49:02.823Z,26.00
2023-05-03T20:51:30.320Z,27.10
2023-05-03T20:53:57.739Z,21.20
2023-05-03T20:56:25.476Z,16.27
2023-05-03T20:58:53.235Z,18.67
2023-05-03T21:01:23.015Z,25.98
2023-05-03T21:03:50.715Z,11.43
2023-05-03T21:06:18.492Z,17.02
2023-05-03T21:08:46.141Z,20.08
2023-05-03T21:11:13.300Z,23.90
2023-05-03T21:13:40.982Z,25.23
2023-05-03T21:16:09.592Z,17.92
2023-05-03T21:18:37.463Z,17.00
2023-05-03T21:21:04.790Z,18.98
2023-05-03T21:23:32.049Z,24.85
2023-05-03T21:25:59.316Z,28.52
2023-05-03T21:28:27.568Z,13.88
2023-05-03T21:30:55.054Z,20.58
2023-05-03T21:33:22.517Z,23.10
2023-05-03T21:35:49.838Z,18.20
2023-05-03T21:38:17.793Z,20.13
2023-05-03T21:40:47.038Z,24.42
2023-05-03T21:43:14.507Z,19.98
2023-05-03T21:45:43.303Z,13.05
2023-05-03T21:48:10.900Z,27.05
2023-05-03T21:50:39.322Z,23.90
2023-05-03T21:53:07.192Z,42.75
2023-05-03T21:55:34.544Z,18.45
2023-05-03T21:58:01.853Z,14.57
2023-05-03T22:00:29.296Z,17.80
2023-05-03T22:02:56.602Z,22.48
2023-05-03T22:05:24.516Z,36.58
2023-05-03T22:07:52.162Z,39.17
2023-05-03T22:10:19.479Z,23.25
2023-05-03T22:12:47.050Z,20.60
2023-05-03T22:15:14.963Z,19.85
2023-05-03T22:17:42.416Z,19.17
2023-05-03T22:20:10.671Z,25.77
2023-05-03T22:22:38.077Z,30.52
2023-05-03T22:25:06.453Z,37.88
2023-05-03T22:27:34.260Z,35.40
2023-05-03T22:30:02.138Z,28.48
2023-05-03T22:32:29.892Z,29.70
2023-05-03T22:34:57.026Z,24.88
2023-05-03T22:37:24.389Z,35.75
2023-05-03T22:39:51.687Z,37.28
2023-05-03T22:42:19.056Z,36.10
2023-05-03T22:44:46.327Z,32.80
2023-05-03T22:47:13.698Z,29.42
2023-05-03T22:49:43.262Z,28.30
2023-05-03T22:52:10.690Z,25.60
2023-05-03T22:54:38.016Z,27.17
2023-05-03T22:57:05.791Z,34.67
2023-05-03T22:59:33.048Z,31.75
2023-05-03T23:02:00.823Z,32.05
2023-05-03T23:04:28.018Z,28.85
2023-05-03T23:06:55.385Z,39.28
2023-05-03T23:09:22.681Z,33.10
2023-05-03T23:11:49.999Z,20.92
2023-05-03T23:14:17.653Z,17.83
2023-05-03T23:16:45.062Z,28.67
2023-05-03T23:19:12.412Z,26.98
2023-05-03T23:21:39.726Z,23.83
2023-05-03T23:24:07.828Z,21.80
2023-05-03T23:26:35.243Z,27.95
2023-05-03T23:29:03.806Z,32.15
2023-05-03T23:31:32.088Z,26.67
2023-05-03T23:34:04.956Z,32.60
2023-05-03T23:36:34.032Z,24.08
2023-05-03T23:39:01.476Z,23.73
2023-05-03T23:41:29.219Z,26.58
2023-05-03T23:43:56.420Z,42.63
2023-05-03T23:46:23.779Z,39.60
2023-05-03T23:48:51.166Z,22.83
2023-05-03T23:51:18.538Z,28.67
2023-05-03T23:53:46.019Z,36.63
2023-05-03T23:56:13.336Z,31.85
2023-05-03T23:58:40.672Z,33.42
